createdAt,value
2022-08-05T00:00:31.953Z,36.96
2022-08-05T00:02:33.702Z,36.80
2022-08-05T00:04:37.657Z,36.65
2022-08-05T00:06:41.895Z,37.56
2022-08-05T00:08:44.587Z,36.90
2022-08-05T00:10:49.120Z,37.33
2022-08-05T00:12:56.424Z,37.42
2022-08-05T00:14:58.618Z,37.76
2022-08-05T00:17:02.059Z,37.62
2022-08-05T00:19:04.822Z,38.18
2022-08-05T00:21:09.134Z,38.50
2022-08-05T00:23:12.928Z,38.41
2022-08-05T00:25:14.798Z,38.73
2022-08-05T00:27:18.243Z,38.69
2022-08-05T00:29:22.702Z,39.02
2022-08-05T00:31:53.590Z,38.90
2022-08-05T00:34:55.988Z,38.82
2022-08-05T00:36:16.028Z,39.03
2022-08-05T00:38:34.007Z,39.33
2022-08-05T00:40:47.001Z,39.29
2022-08-05T00:42:56.142Z,39.24
2022-08-05T00:44:57.883Z,39.14
2022-08-05T00:47:01.925Z,39.27
2022-08-05T00:49:06.000Z,39.11
2022-08-05T00:51:50.824Z,38.93
2022-08-05T00:53:59.895Z,38.94
2022-08-05T00:55:54.060Z,38.86
2022-08-05T00:57:59.084Z,39.02
2022-08-05T01:00:00.976Z,39.00
2022-08-05T01:02:03.061Z,39.05
2022-08-05T01:04:13.649Z,38.99
2022-08-05T01:06:17.377Z,38.80
2022-08-05T01:08:39.925Z,39.28
2022-08-05T01:10:51.711Z,38.89
2022-08-05T01:13:12.877Z,39.22
2022-08-05T01:15:35.616Z,39.63
2022-08-05T01:17:44.028Z,39.46
2022-08-05T01:20:02.368Z,40.08
2022-08-05T01:22:24.089Z,40.29
2022-08-05T01:24:46.487Z,40.26
2022-08-05T01:26:59.690Z,39.52
2022-08-05T01:29:05.565Z,39.51
2022-08-05T01:31:10.560Z,39.31
2022-08-05T01:33:15.922Z,39.19
2022-08-05T01:35:50.988Z,39.34
2022-08-05T01:37:54.597Z,38.95
2022-08-05T01:39:59.187Z,39.04
2022-08-05T01:42:03.104Z,39.44
2022-08-05T01:44:09.814Z,39.13
2022-08-05T01:46:16.694Z,39.36
2022-08-05T01:48:36.665Z,39.01
2022-08-05T01:50:40.794Z,39.02
2022-08-05T01:52:56.190Z,38.74
2022-08-05T01:55:04.309Z,38.31
2022-08-05T01:58:13.738Z,38.69
2022-08-05T01:59:33.902Z,38.83
2022-08-05T02:01:40.008Z,38.94
2022-08-05T02:03:46.403Z,39.45
2022-08-05T02:05:49.091Z,39.27
2022-08-05T02:08:01.724Z,38.58
2022-08-05T02:10:05.616Z,38.58
2022-08-05T02:12:16.846Z,38.26
2022-08-05T02:14:27.516Z,38.59
2022-08-05T02:16:36.669Z,38.78
2022-08-05T02:18:42.631Z,38.75
2022-08-05T02:20:49.601Z,38.10
2022-08-05T02:22:58.128Z,38.08
2022-08-05T02:25:05.110Z,37.68
2022-08-05T02:27:10.570Z,38.13
2022-08-05T02:29:21.716Z,38.26
2022-08-05T02:31:34.550Z,37.83
2022-08-05T02:33:40.680Z,37.67
2022-08-05T02:35:50.983Z,37.63
2022-08-05T02:38:00.293Z,37.97
2022-08-05T02:40:06.827Z,37.61
2022-08-05T02:42:11.838Z,38.27
2022-08-05T02:44:30.241Z,38.67
2022-08-05T02:46:33.675Z,38.14
2022-08-05T02:48:37.519Z,38.02
2022-08-05T02:50:43.621Z,38.38
2022-08-05T02:52:46.693Z,38.11
2022-08-05T02:54:51.104Z,37.92
2022-08-05T02:56:54.637Z,37.83
2022-08-05T02:58:57.660Z,37.69
2022-08-05T03:01:02.505Z,38.47
2022-08-05T03:03:10.407Z,38.37
2022-08-05T03:05:13.709Z,38.99
2022-08-05T03:07:21.431Z,39.15
2022-08-05T03:09:38.449Z,39.25
2022-08-05T03:11:54.424Z,39.27
2022-08-05T03:14:03.306Z,39.56
2022-08-05T03:16:06.271Z,39.33
2022-08-05T03:18:12.584Z,39.20
2022-08-05T03:20:18.920Z,38.98
2022-08-05T03:22:32.011Z,38.72
2022-08-05T03:24:34.314Z,39.70
2022-08-05T03:26:37.217Z,38.70
2022-08-05T03:28:38.841Z,38.92
2022-08-05T03:30:41.090Z,39.41
2022-08-05T03:32:44.194Z,40.25
2022-08-05T03:34:50.763Z,40.59
2022-08-05T03:36:53.183Z,42.15
2022-08-05T03:38:54.808Z,40.26
2022-08-05T03:40:57.749Z,41.45
2022-08-05T03:43:01.483Z,39.99
2022-08-05T03:45:23.238Z,39.64
2022-08-05T03:47:25.610Z,39.74
2022-08-05T03:49:52.150Z,40.36
2022-08-05T03:52:36.628Z,39.51
2022-08-05T03:55:52.517Z,39.52
2022-08-05T03:56:56.201Z,39.60
2022-08-05T03:59:21.355Z,39.62
2022-08-05T04:01:32.305Z,39.44
2022-08-05T04:03:38.085Z,39.50
2022-08-05T04:05:40.640Z,41.11
2022-08-05T04:07:51.480Z,42.84
2022-08-05T04:10:01.623Z,39.87
2022-08-05T04:12:05.881Z,39.55
2022-08-05T04:14:29.936Z,40.82
2022-08-05T04:16:32.984Z,40.14
2022-08-05T04:18:34.843Z,40.86
2022-08-05T04:20:36.527Z,41.11
2022-08-05T04:22:38.149Z,39.66
2022-08-05T04:24:53.005Z,40.08
2022-08-05T04:26:54.740Z,39.35
2022-08-05T04:28:59.946Z,39.50
2022-08-05T04:31:01.627Z,39.47
2022-08-05T04:33:09.909Z,39.60
2022-08-05T04:35:19.463Z,39.43
2022-08-05T04:37:22.869Z,39.48
2022-08-05T04:39:44.293Z,39.72
2022-08-05T04:41:55.417Z,39.47
2022-08-05T04:43:57.086Z,39.66
2022-08-05T04:45:58.832Z,39.60
2022-08-05T04:48:07.475Z,39.71
2022-08-05T04:50:37.490Z,39.49
2022-08-05T04:52:39.680Z,39.71
2022-08-05T04:54:42.108Z,39.73
2022-08-05T04:56:45.081Z,39.31
2022-08-05T04:58:46.652Z,39.51
2022-08-05T05:00:50.640Z,39.48
2022-08-05T05:02:52.630Z,39.44
2022-08-05T05:05:02.237Z,39.31
2022-08-05T05:07:04.966Z,39.38
2022-08-05T05:09:17.228Z,39.61
2022-08-05T05:11:19.435Z,40.85
2022-08-05T05:13:23.983Z,40.50
2022-08-05T05:15:57.364Z,40.98
2022-08-05T05:17:55.922Z,41.17
2022-08-05T05:19:58.807Z,40.74
2022-08-05T05:22:06.265Z,41.04
2022-08-05T05:24:23.209Z,41.69
2022-08-05T05:26:46.472Z,41.77
2022-08-05T05:28:53.032Z,41.97
2022-08-05T05:30:55.116Z,42.10
2022-08-05T05:32:57.330Z,41.40
2022-08-05T05:35:02.677Z,41.88
2022-08-05T05:37:04.973Z,41.36
2022-08-05T05:39:09.878Z,40.91
2022-08-05T05:41:13.175Z,41.26
2022-08-05T05:43:27.875Z,41.53
2022-08-05T05:45:48.262Z,41.44
2022-08-05T05:48:05.229Z,41.51
2022-08-05T05:50:10.172Z,41.92
2022-08-05T05:52:28.386Z,42.67
2022-08-05T05:54:49.916Z,41.61
2022-08-05T05:56:52.767Z,41.40
2022-08-05T05:58:54.630Z,40.99
2022-08-05T06:01:12.051Z,40.77
2022-08-05T06:03:40.589Z,40.73
2022-08-05T06:05:35.685Z,40.62
2022-08-05T06:07:41.797Z,40.60
2022-08-05T06:09:59.849Z,40.57
2022-08-05T06:12:02.791Z,40.55
2022-08-05T06:14:04.591Z,40.55
2022-08-05T06:16:31.778Z,40.64
2022-08-05T06:18:31.359Z,40.19
2022-08-05T06:20:33.371Z,40.53
2022-08-05T06:22:37.302Z,41.50
2022-08-05T06:24:48.317Z,42.17
2022-08-05T06:26:51.439Z,42.23
2022-08-05T06:28:53.583Z,42.55
2022-08-05T06:30:55.570Z,42.33
2022-08-05T06:32:59.051Z,42.39
2022-08-05T06:35:05.769Z,42.69
2022-08-05T06:37:08.223Z,42.37
2022-08-05T06:39:10.037Z,41.84
2022-08-05T06:41:12.400Z,41.93
2022-08-05T06:43:51.437Z,43.08
2022-08-05T06:46:02.929Z,41.67
2022-08-05T06:48:44.247Z,42.49
2022-08-05T06:50:21.418Z,41.68
2022-08-05T06:52:37.067Z,41.00
2022-08-05T06:54:39.949Z,39.76
2022-08-05T06:56:41.593Z,41.01
2022-08-05T06:58:57.201Z,40.97
2022-08-05T07:01:00.289Z,40.39
2022-08-05T07:03:03.375Z,41.21
2022-08-05T07:05:15.436Z,41.11
2022-08-05T07:07:24.024Z,40.54
2022-08-05T07:09:43.239Z,40.00
2022-08-05T07:11:49.404Z,42.06
2022-08-05T07:13:59.406Z,41.22
2022-08-05T07:16:04.594Z,39.60
2022-08-05T07:18:10.184Z,39.17
2022-08-05T07:22:35.246Z,38.77
2022-08-05T07:24:44.019Z,39.23
2022-08-05T07:26:54.438Z,38.31
2022-08-05T07:28:56.271Z,38.08
2022-08-05T07:31:01.401Z,35.51
2022-08-05T07:33:09.255Z,37.38
2022-08-05T07:36:03.642Z,37.70
2022-08-05T07:37:37.485Z,36.95
2022-08-05T07:40:04.680Z,37.43
2022-08-05T07:42:14.448Z,37.41
2022-08-05T07:44:19.231Z,37.82
2022-08-05T07:46:25.457Z,37.74
2022-08-05T07:49:00.589Z,36.44
2022-08-05T07:50:50.517Z,37.01
2022-08-05T07:52:52.215Z,36.23
2022-08-05T07:54:54.744Z,36.67
2022-08-05T07:57:13.531Z,37.79
2022-08-05T07:59:17.893Z,36.66
2022-08-05T08:01:25.003Z,36.03
2022-08-05T08:03:44.053Z,36.69
2022-08-05T08:05:49.570Z,36.92
2022-08-05T08:07:59.745Z,37.16
2022-08-05T08:10:02.292Z,37.08
2022-08-05T08:12:12.490Z,36.68
2022-08-05T08:14:21.835Z,38.43
2022-08-05T08:16:35.215Z,37.41
2022-08-05T08:18:50.213Z,38.58
2022-08-05T08:21:01.866Z,37.46
2022-08-05T08:23:06.298Z,36.15
2022-08-05T08:25:16.436Z,36.79
2022-08-05T08:27:19.608Z,36.09
2022-08-05T08:30:05.571Z,36.64
2022-08-05T08:31:43.329Z,36.33
2022-08-05T08:33:45.838Z,34.67
2022-08-05T08:35:52.396Z,35.74
2022-08-05T08:37:56.498Z,35.76
2022-08-05T08:39:59.943Z,36.23
2022-08-05T08:42:10.729Z,35.50
2022-08-05T08:45:16.986Z,34.28
2022-08-05T08:46:52.106Z,36.53
2022-08-05T08:49:07.751Z,38.15
2022-08-05T08:52:02.001Z,38.14
2022-08-05T08:53:44.492Z,38.71
2022-08-05T08:56:04.014Z,39.39
2022-08-05T08:58:08.799Z,40.72
2022-08-05T09:00:11.496Z,44.09
2022-08-05T09:02:20.048Z,42.22
2022-08-05T09:04:22.019Z,40.39
2022-08-05T09:06:33.013Z,39.22
2022-08-05T09:08:40.148Z,39.11
2022-08-05T09:10:42.575Z,38.88
2022-08-05T09:12:50.987Z,39.02
2022-08-05T09:15:04.053Z,38.82
2022-08-05T09:17:42.969Z,38.42
2022-08-05T09:19:36.397Z,38.54
2022-08-05T09:22:30.915Z,38.42
2022-08-05T09:24:05.491Z,38.55
2022-08-05T09:26:10.117Z,38.06
2022-08-05T09:28:16.435Z,38.02
2022-08-05T09:30:23.733Z,38.05
2022-08-05T09:32:45.910Z,38.25
2022-08-05T09:34:55.327Z,37.46
2022-08-05T09:36:59.218Z,37.43
2022-08-05T09:39:17.991Z,37.71
2022-08-05T09:41:23.636Z,37.17
2022-08-05T09:43:41.207Z,37.58
2022-08-05T09:46:06.617Z,37.52
2022-08-05T09:48:21.668Z,36.49
2022-08-05T09:50:38.711Z,37.20
2022-08-05T09:52:45.477Z,36.33
2022-08-05T09:54:54.622Z,35.52
2022-08-05T09:57:01.758Z,35.40
2022-08-05T09:59:06.884Z,36.99
2022-08-05T10:01:15.380Z,36.84
2022-08-05T10:03:24.922Z,37.04
2022-08-05T10:05:46.609Z,36.87
2022-08-05T10:08:34.770Z,36.17
2022-08-05T10:10:15.813Z,34.06
2022-08-05T10:12:33.499Z,36.31
2022-08-05T10:14:37.089Z,36.43
2022-08-05T10:16:52.377Z,36.68
2022-08-05T10:18:55.352Z,36.30
2022-08-05T10:21:06.117Z,36.55
2022-08-05T10:23:34.353Z,36.38
2022-08-05T10:25:34.895Z,34.96
2022-08-05T10:28:13.381Z,36.07
2022-08-05T10:30:41.313Z,36.41
2022-08-05T10:32:52.808Z,36.47
2022-08-05T10:34:45.891Z,36.49
2022-08-05T10:36:49.373Z,35.69
2022-08-05T10:38:57.303Z,35.71
2022-08-05T10:41:13.813Z,36.29
2022-08-05T10:43:31.049Z,36.38
2022-08-05T10:45:39.985Z,35.08
2022-08-05T10:47:56.139Z,36.37
2022-08-05T10:50:32.364Z,36.43
2022-08-05T10:52:42.958Z,36.43
2022-08-05T10:55:05.384Z,36.04
2022-08-05T10:57:07.580Z,36.50
2022-08-05T11:00:02.988Z,36.14
2022-08-05T11:01:55.362Z,36.11
2022-08-05T11:04:07.989Z,35.92
2022-08-05T11:06:16.032Z,35.48
2022-08-05T11:08:36.854Z,35.91
2022-08-05T11:10:50.370Z,36.13
2022-08-05T11:13:01.471Z,35.79
2022-08-05T11:15:19.670Z,36.37
2022-08-05T11:18:00.214Z,35.91
2022-08-05T11:20:11.182Z,35.44
2022-08-05T11:22:43.254Z,35.69
2022-08-05T11:26:04.086Z,36.15
2022-08-05T11:27:51.679Z,35.89
2022-08-05T11:30:02.204Z,36.02
2022-08-05T11:32:24.389Z,35.89
2022-08-05T11:34:39.484Z,35.77
2022-08-05T11:36:52.568Z,35.71
2022-08-05T11:38:55.313Z,35.29
2022-08-05T11:41:13.824Z,35.05
2022-08-05T11:44:04.787Z,35.39
2022-08-05T11:46:27.191Z,35.64
2022-08-05T11:48:11.619Z,35.99
2022-08-05T11:50:15.145Z,36.03
2022-08-05T11:52:23.416Z,35.84
2022-08-05T11:54:34.363Z,36.09
2022-08-05T11:56:43.895Z,35.92
2022-08-05T11:58:52.939Z,35.73
2022-08-05T12:01:01.712Z,35.38
2022-08-05T12:03:29.194Z,35.63
2022-08-05T12:05:39.811Z,35.38
2022-08-05T12:08:08.179Z,35.47
2022-08-05T12:10:09.223Z,35.38
2022-08-05T12:12:11.510Z,35.11
2022-08-05T12:14:13.699Z,35.14
2022-08-05T12:16:18.369Z,34.89
2022-08-05T12:18:32.629Z,34.76
2022-08-05T12:20:36.120Z,34.15
2022-08-05T12:22:37.735Z,34.74
2022-08-05T12:24:43.601Z,34.54
2022-08-05T12:26:52.904Z,34.04
2022-08-05T12:28:54.488Z,34.04
2022-08-05T12:30:56.724Z,34.19
2022-08-05T12:32:58.469Z,34.47
2022-08-05T12:35:09.509Z,34.30
2022-08-05T12:37:29.734Z,34.97
2022-08-05T12:39:37.263Z,34.78
2022-08-05T12:41:43.536Z,34.91
2022-08-05T12:43:51.390Z,35.05
2022-08-05T12:45:54.203Z,35.00
2022-08-05T12:48:01.789Z,34.79
2022-08-05T12:50:17.663Z,34.79
2022-08-05T12:52:28.321Z,34.90
2022-08-05T12:54:32.116Z,34.45
2022-08-05T12:56:35.308Z,34.74
2022-08-05T12:58:51.433Z,34.80
2022-08-05T13:02:01.734Z,34.95
2022-08-05T13:03:17.343Z,34.86
2022-08-05T13:05:19.264Z,34.59
2022-08-05T13:07:54.705Z,34.25
2022-08-05T13:09:54.491Z,34.19
2022-08-05T13:12:03.737Z,34.29
2022-08-05T13:14:20.235Z,33.65
2022-08-05T13:16:27.824Z,33.84
2022-08-05T13:18:37.589Z,33.24
2022-08-05T13:20:40.218Z,32.79
2022-08-05T13:22:47.999Z,32.86
2022-08-05T13:24:57.489Z,32.66
2022-08-05T13:26:59.856Z,32.22
2022-08-05T13:29:05.134Z,32.82
2022-08-05T13:31:13.983Z,32.34
2022-08-05T13:34:23.559Z,32.84
2022-08-05T13:35:47.005Z,32.08
2022-08-05T13:37:55.587Z,31.55
2022-08-05T13:40:16.699Z,31.78
2022-08-05T13:42:20.214Z,31.38
2022-08-05T13:44:21.827Z,30.93
2022-08-05T13:46:43.785Z,30.11
2022-08-05T13:48:58.233Z,29.72
2022-08-05T13:51:05.781Z,30.40
2022-08-05T13:53:15.618Z,29.51
2022-08-05T13:55:40.902Z,31.05
2022-08-05T13:57:51.203Z,30.55
2022-08-05T13:59:57.082Z,29.80
2022-08-05T14:02:02.598Z,29.64
2022-08-05T14:04:04.848Z,29.60
2022-08-05T14:06:26.185Z,29.09
2022-08-05T14:08:32.638Z,28.43
2022-08-05T14:10:34.609Z,28.16
2022-08-05T14:12:36.475Z,28.23
2022-08-05T14:14:38.106Z,28.25
2022-08-05T14:16:39.855Z,28.32
2022-08-05T14:18:44.126Z,28.84
2022-08-05T14:20:47.362Z,29.02
2022-08-05T14:22:49.873Z,28.97
2022-08-05T14:24:53.288Z,29.70
2022-08-05T14:27:15.590Z,29.47
2022-08-05T14:29:17.819Z,29.76
2022-08-05T14:32:03.158Z,29.77
2022-08-05T14:34:00.132Z,30.43
2022-08-05T14:36:03.181Z,30.75
2022-08-05T14:38:04.780Z,30.26
2022-08-05T14:40:09.096Z,31.31
2022-08-05T14:42:29.399Z,30.90
2022-08-05T14:44:31.173Z,32.07
2022-08-05T14:46:35.041Z,31.26
2022-08-05T14:48:37.210Z,31.34
2022-08-05T14:50:40.869Z,31.88
2022-08-05T14:52:52.526Z,31.63
2022-08-05T14:54:55.984Z,31.71
2022-08-05T14:56:59.554Z,32.30
2022-08-05T14:59:01.459Z,32.31
2022-08-05T15:01:05.148Z,32.55
2022-08-05T15:03:17.894Z,32.63
2022-08-05T15:05:19.997Z,32.17
2022-08-05T15:08:06.139Z,33.41
2022-08-05T15:09:52.750Z,33.01
2022-08-05T15:11:56.064Z,33.42
2022-08-05T15:14:00.654Z,33.64
2022-08-05T15:16:02.678Z,33.75
2022-08-05T15:18:05.607Z,33.93
2022-08-05T15:20:17.119Z,34.78
2022-08-05T15:22:21.063Z,34.27
2022-08-05T15:24:23.109Z,34.80
2022-08-05T15:26:32.155Z,35.27
2022-08-05T15:28:34.214Z,34.99
2022-08-05T15:30:37.314Z,34.99
2022-08-05T15:32:39.934Z,35.05
2022-08-05T15:34:42.207Z,35.78
2022-08-05T15:36:43.899Z,36.29
2022-08-05T15:38:46.408Z,35.70
2022-08-05T15:41:21.019Z,35.77
2022-08-05T15:43:19.770Z,35.88
2022-08-05T15:45:23.122Z,36.04
2022-08-05T15:47:43.146Z,36.37
2022-08-05T15:49:53.398Z,36.15
2022-08-05T15:52:13.812Z,36.52
2022-08-05T15:54:18.700Z,37.03
2022-08-05T15:56:21.170Z,37.94
2022-08-05T15:58:23.123Z,38.49
2022-08-05T16:00:26.146Z,39.27
2022-08-05T16:02:46.333Z,39.96
2022-08-05T16:04:48.915Z,39.88
2022-08-05T16:06:50.501Z,40.09
2022-08-05T16:08:55.217Z,39.86
2022-08-05T16:10:57.486Z,40.08
2022-08-05T16:12:59.041Z,40.72
2022-08-05T16:15:01.012Z,41.00
2022-08-05T16:17:02.880Z,40.90
2022-08-05T16:19:07.465Z,43.98
2022-08-05T16:21:11.603Z,42.34
2022-08-05T16:23:15.325Z,40.72
2022-08-05T16:25:17.052Z,40.86
2022-08-05T16:27:18.929Z,40.44
2022-08-05T16:29:21.385Z,40.46
2022-08-05T16:31:23.306Z,40.16
2022-08-05T16:33:25.012Z,40.20
2022-08-05T16:35:33.642Z,39.86
2022-08-05T16:38:02.025Z,39.59
2022-08-05T16:40:05.689Z,39.36
2022-08-05T16:42:14.042Z,39.03
2022-08-05T16:44:18.506Z,38.99
2022-08-05T16:46:24.291Z,38.58
2022-08-05T16:48:33.405Z,38.37
2022-08-05T16:50:37.385Z,38.63
2022-08-05T16:52:39.194Z,38.08
2022-08-05T16:54:47.963Z,38.06
2022-08-05T16:56:52.450Z,37.31
2022-08-05T16:58:54.125Z,37.58
2022-08-05T17:00:55.846Z,37.64
2022-08-05T17:02:57.779Z,37.46
2022-08-05T17:04:59.507Z,37.54
2022-08-05T17:07:03.564Z,37.46
2022-08-05T17:09:13.960Z,37.73
2022-08-05T17:11:17.279Z,37.53
2022-08-05T17:13:21.219Z,37.30
2022-08-05T17:15:23.160Z,37.62
2022-08-05T17:17:42.811Z,37.65
2022-08-05T17:19:45.540Z,37.55
2022-08-05T17:21:51.481Z,37.40
2022-08-05T17:24:05.632Z,37.65
2022-08-05T17:26:09.947Z,37.61
2022-08-05T17:28:15.363Z,37.43
2022-08-05T17:30:18.897Z,37.36
2022-08-05T17:32:30.156Z,37.02
2022-08-05T17:34:34.918Z,37.31
2022-08-05T17:36:40.609Z,37.43
2022-08-05T17:38:42.928Z,37.39
2022-08-05T17:40:46.393Z,37.21
2022-08-05T17:42:51.060Z,37.30
2022-08-05T17:44:53.779Z,37.30
2022-08-05T17:46:55.370Z,37.18
2022-08-05T17:48:57.203Z,36.98
2022-08-05T17:50:59.654Z,37.31
2022-08-05T17:53:05.180Z,37.38
2022-08-05T17:55:08.031Z,37.50
2022-08-05T17:57:12.328Z,37.37
2022-08-05T17:59:14.112Z,36.88
2022-08-05T18:01:22.746Z,37.11
2022-08-05T18:03:58.468Z,37.28
2022-08-05T18:05:50.037Z,37.28
2022-08-05T18:07:56.879Z,37.54
2022-08-05T18:10:02.129Z,37.23
2022-08-05T18:12:13.392Z,36.27
2022-08-05T18:14:23.934Z,36.92
2022-08-05T18:16:25.745Z,36.99
2022-08-05T18:18:27.399Z,37.14
2022-08-05T18:20:31.614Z,37.36
2022-08-05T18:22:36.394Z,36.91
2022-08-05T18:24:58.693Z,35.79
2022-08-05T18:27:00.458Z,36.93
2022-08-05T18:29:03.503Z,36.66
2022-08-05T18:31:05.476Z,36.90
2022-08-05T18:33:07.124Z,36.86
2022-08-05T18:35:09.017Z,36.79
2022-08-05T18:37:33.542Z,36.24
2022-08-05T18:40:31.468Z,36.49
2022-08-05T18:42:02.218Z,36.86
2022-08-05T18:44:09.424Z,35.92
2022-08-05T18:46:11.180Z,34.61
2022-08-05T18:48:31.314Z,36.62
2022-08-05T18:50:42.155Z,36.52
2022-08-05T18:52:51.138Z,36.56
2022-08-05T18:54:54.448Z,36.28
2022-08-05T18:56:56.149Z,36.63
2022-08-05T18:59:00.800Z,36.53
2022-08-05T19:01:04.506Z,35.73
2022-08-05T19:03:07.109Z,36.40
2022-08-05T19:06:05.895Z,36.23
2022-08-05T19:07:45.112Z,36.65
2022-08-05T19:09:47.360Z,36.93
2022-08-05T19:11:59.256Z,36.67
2022-08-05T19:14:20.053Z,36.66
2022-08-05T19:16:29.358Z,36.97
2022-08-05T19:18:34.811Z,36.95
2022-08-05T19:20:36.966Z,36.91
2022-08-05T19:22:43.028Z,37.30
2022-08-05T19:24:56.015Z,36.66
2022-08-05T19:26:57.969Z,36.77
2022-08-05T19:29:00.034Z,36.81
2022-08-05T19:31:05.880Z,37.29
2022-08-05T19:33:12.695Z,36.74
2022-08-05T19:35:18.772Z,36.54
2022-08-05T19:37:29.812Z,36.35
2022-08-05T19:39:51.014Z,36.93
2022-08-05T19:42:06.162Z,36.16
2022-08-05T19:44:13.769Z,36.43
2022-08-05T19:46:16.532Z,36.82
2022-08-05T19:48:30.400Z,36.59
2022-08-05T19:50:32.013Z,36.98
2022-08-05T19:52:33.690Z,36.80
2022-08-05T19:54:35.641Z,37.21
2022-08-05T19:56:40.084Z,37.28
2022-08-05T19:58:53.770Z,36.96
2022-08-05T20:00:55.857Z,36.66
2022-08-05T20:02:57.816Z,35.53
2022-08-05T20:05:04.651Z,36.90
2022-08-05T20:07:10.449Z,37.24
2022-08-05T20:09:15.200Z,36.72
2022-08-05T20:11:19.608Z,37.21
2022-08-05T20:13:30.372Z,36.17
2022-08-05T20:15:51.672Z,37.31
2022-08-05T20:18:01.341Z,36.72
2022-08-05T20:20:09.483Z,37.40
2022-08-05T20:22:12.782Z,37.27
2022-08-05T20:24:14.412Z,37.32
2022-08-05T20:26:18.459Z,37.04
2022-08-05T20:28:20.682Z,35.79
2022-08-05T20:30:24.168Z,37.16
2022-08-05T20:32:28.308Z,36.07
2022-08-05T20:34:30.075Z,36.78
2022-08-05T20:36:34.061Z,36.83
2022-08-05T20:38:35.779Z,35.93
2022-08-05T20:40:37.688Z,36.27
2022-08-05T20:42:44.989Z,35.60
2022-08-05T20:44:46.707Z,34.88
2022-08-05T20:46:48.781Z,35.25
2022-08-05T20:48:51.038Z,35.68
2022-08-05T20:50:53.399Z,35.97
2022-08-05T20:52:56.354Z,36.59
2022-08-05T20:55:55.311Z,35.66
2022-08-05T20:57:24.644Z,37.76
2022-08-05T21:00:10.471Z,37.63
2022-08-05T21:02:03.265Z,33.81
2022-08-05T21:04:05.948Z,35.60
2022-08-05T21:06:28.722Z,36.04
2022-08-05T21:08:41.930Z,37.36
2022-08-05T21:10:49.057Z,36.05
2022-08-05T21:12:58.356Z,35.35
2022-08-05T21:15:11.839Z,33.96
2022-08-05T21:17:15.045Z,33.99
2022-08-05T21:19:17.167Z,34.67
2022-08-05T21:21:24.455Z,34.79
2022-08-05T21:23:26.213Z,35.40
2022-08-05T21:25:33.973Z,34.79
2022-08-05T21:27:38.959Z,35.30
2022-08-05T21:29:40.961Z,35.35
2022-08-05T21:31:42.669Z,35.63
2022-08-05T21:33:47.889Z,33.76
2022-08-05T21:35:56.008Z,34.45
2022-08-05T21:38:00.978Z,35.08
2022-08-05T21:40:05.840Z,36.21
2022-08-05T21:42:41.481Z,37.00
2022-08-05T21:44:31.809Z,37.07
2022-08-05T21:46:34.423Z,34.46
2022-08-05T21:48:36.414Z,37.64
2022-08-05T21:50:38.138Z,34.90
2022-08-05T21:52:39.978Z,36.78
2022-08-05T21:54:51.119Z,37.01
2022-08-05T21:57:29.206Z,36.29
2022-08-05T21:59:24.275Z,35.77
2022-08-05T22:01:27.979Z,34.54
2022-08-05T22:03:48.612Z,37.27
2022-08-05T22:05:54.550Z,35.02
2022-08-05T22:08:02.289Z,33.99
2022-08-05T22:10:04.818Z,36.83
2022-08-05T22:12:10.609Z,35.32
2022-08-05T22:14:32.559Z,33.55
2022-08-05T22:16:51.291Z,35.32
2022-08-05T22:18:58.678Z,37.60
2022-08-05T22:21:00.458Z,32.64
2022-08-05T22:23:16.588Z,32.84
2022-08-05T22:25:27.480Z,34.43
2022-08-05T22:28:08.113Z,33.57
2022-08-05T22:29:54.446Z,32.87
2022-08-05T22:32:02.778Z,36.52
2022-08-05T22:34:05.078Z,32.05
2022-08-05T22:36:07.929Z,32.68
2022-08-05T22:38:11.689Z,35.13
2022-08-05T22:40:16.632Z,31.90
2022-08-05T22:42:26.187Z,34.10
2022-08-05T22:44:29.294Z,33.56
2022-08-05T22:46:30.965Z,32.74
2022-08-05T22:48:35.451Z,32.41
2022-08-05T22:50:37.051Z,32.32
2022-08-05T22:52:48.859Z,32.52
2022-08-05T22:54:50.407Z,32.28
2022-08-05T22:56:52.033Z,32.01
2022-08-05T22:58:55.316Z,32.17
2022-08-05T23:00:57.164Z,33.15
2022-08-05T23:02:58.969Z,32.28
2022-08-05T23:05:05.293Z,32.59
2022-08-05T23:07:07.011Z,33.89
2022-08-05T23:09:27.795Z,32.39
2022-08-05T23:11:30.311Z,32.70
2022-08-05T23:13:32.455Z,33.21
2022-08-05T23:15:36.454Z,32.74
2022-08-05T23:18:00.409Z,33.33
2022-08-05T23:20:06.572Z,33.01
2022-08-05T23:22:19.262Z,32.91
2022-08-05T23:24:31.780Z,33.30
2022-08-05T23:26:33.341Z,32.65
2022-08-05T23:28:35.015Z,33.58
2022-08-05T23:30:39.972Z,33.32
2022-08-05T23:32:45.469Z,33.51
2022-08-05T23:34:47.180Z,33.62
2022-08-05T23:36:50.325Z,33.81
2022-08-05T23:38:54.557Z,33.16
2022-08-05T23:40:56.274Z,33.38
2022-08-05T23:42:57.873Z,33.62
2022-08-05T23:45:03.924Z,33.37
2022-08-05T23:47:16.864Z,33.01
2022-08-05T23:49:23.673Z,34.02
2022-08-05T23:51:27.343Z,34.38
2022-08-05T23:53:46.383Z,34.13
2022-08-05T23:55:48.725Z,34.42
2022-08-05T23:57:52.822Z,34.06
